createdAt,value
2022-09-24T00:01:32.800Z,11.00
2022-09-24T00:04:05.129Z,11.00
2022-09-24T00:06:38.490Z,11.00
2022-09-24T00:09:05.257Z,11.00
2022-09-24T00:11:32.041Z,11.00
2022-09-24T00:13:59.676Z,11.00
2022-09-24T00:16:30.452Z,11.00
2022-09-24T00:18:59.315Z,11.00
2022-09-24T00:21:28.820Z,11.00
2022-09-24T00:23:58.112Z,11.00
2022-09-24T00:26:43.681Z,11.00
2022-09-24T00:29:12.049Z,11.00
2022-09-24T00:31:39.251Z,11.00
2022-09-24T00:34:06.146Z,11.00
2022-09-24T00:36:33.057Z,11.10
2022-09-24T00:39:00.563Z,11.20
2022-09-24T00:41:33.294Z,11.10
2022-09-24T00:44:00.442Z,11.10
2022-09-24T00:46:30.058Z,11.10
2022-09-24T00:49:05.630Z,11.10
2022-09-24T00:51:33.589Z,11.10
2022-09-24T00:54:06.426Z,11.10
2022-09-24T00:56:36.497Z,11.10
2022-09-24T00:59:05.060Z,11.00
2022-09-24T01:01:32.181Z,11.00
2022-09-24T01:04:00.225Z,11.10
2022-09-24T01:06:27.312Z,11.00
2022-09-24T01:08:56.177Z,11.00
2022-09-24T01:11:54.669Z,11.00
2022-09-24T01:14:49.301Z,11.00
2022-09-24T01:17:34.487Z,11.00
2022-09-24T01:20:26.108Z,11.10
2022-09-24T01:23:30.864Z,11.10
2022-09-24T01:26:19.798Z,11.00
2022-09-24T01:28:52.343Z,11.10
2022-09-24T01:31:48.830Z,11.10
2022-09-24T01:34:22.200Z,11.00
2022-09-24T01:36:52.356Z,11.10
2022-09-24T01:39:20.201Z,11.00
2022-09-24T01:41:48.184Z,11.00
2022-09-24T01:44:18.691Z,11.10
2022-09-24T01:46:45.620Z,11.10
2022-09-24T01:49:12.318Z,11.00
2022-09-24T01:51:51.859Z,11.00
2022-09-24T01:54:21.019Z,11.00
2022-09-24T01:57:09.791Z,11.00
2022-09-24T02:00:02.020Z,11.00
2022-09-24T02:02:39.565Z,11.10
2022-09-24T02:05:41.113Z,11.00
2022-09-24T02:08:29.132Z,11.00
2022-09-24T02:11:23.310Z,11.10
2022-09-24T02:13:53.928Z,11.00
2022-09-24T02:16:34.054Z,11.00
2022-09-24T02:19:05.677Z,11.00
2022-09-24T02:21:34.597Z,11.00
2022-09-24T02:24:05.855Z,11.00
2022-09-24T02:26:32.514Z,11.00
2022-09-24T02:28:59.294Z,11.00
2022-09-24T02:31:54.282Z,11.00
2022-09-24T02:34:28.629Z,11.00
2022-09-24T02:37:02.414Z,11.00
2022-09-24T02:39:29.050Z,11.00
2022-09-24T02:41:56.824Z,10.90
2022-09-24T02:44:24.237Z,10.90
2022-09-24T02:46:51.091Z,10.90
2022-09-24T02:49:18.143Z,10.90
2022-09-24T02:51:45.301Z,10.90
2022-09-24T02:54:11.996Z,10.90
2022-09-24T02:56:39.126Z,10.90
2022-09-24T02:59:06.643Z,10.90
2022-09-24T03:01:34.334Z,10.90
2022-09-24T03:04:01.786Z,10.90
2022-09-24T03:06:28.518Z,10.90
2022-09-24T03:08:55.131Z,10.90
2022-09-24T03:11:22.598Z,10.90
2022-09-24T03:13:50.089Z,10.90
2022-09-24T03:16:18.052Z,11.00
2022-09-24T03:18:46.925Z,11.00
2022-09-24T03:21:15.112Z,11.00
2022-09-24T03:23:42.216Z,11.00
2022-09-24T03:26:09.206Z,11.00
2022-09-24T03:28:36.223Z,11.00
2022-09-24T03:31:03.180Z,11.00
2022-09-24T03:33:29.830Z,11.00
2022-09-24T03:36:01.836Z,11.10
2022-09-24T03:38:29.929Z,11.10
2022-09-24T03:40:57.510Z,11.20
2022-09-24T03:43:24.575Z,11.20
2022-09-24T03:45:51.923Z,11.20
2022-09-24T03:48:20.951Z,11.20
2022-09-24T03:50:48.604Z,11.20
2022-09-24T03:53:16.073Z,11.20
2022-09-24T03:55:47.950Z,11.20
2022-09-24T03:58:16.041Z,11.30
2022-09-24T04:00:42.974Z,11.30
2022-09-24T04:03:09.988Z,11.30
2022-09-24T04:05:36.879Z,11.30
2022-09-24T04:08:05.085Z,11.30
2022-09-24T04:10:32.369Z,11.40
2022-09-24T04:12:59.126Z,11.40
2022-09-24T04:15:25.809Z,11.30
2022-09-24T04:17:54.446Z,11.40
2022-09-24T04:20:22.682Z,11.50
2022-09-24T04:22:54.117Z,11.50
2022-09-24T04:25:21.892Z,11.50
2022-09-24T04:27:57.543Z,11.60
2022-09-24T04:30:25.342Z,11.50
2022-09-24T04:32:52.938Z,11.50
2022-09-24T04:35:20.931Z,11.60
2022-09-24T04:37:48.186Z,11.60
2022-09-24T04:40:16.159Z,11.60
2022-09-24T04:42:46.193Z,11.70
2022-09-24T04:45:14.297Z,11.60
2022-09-24T04:47:41.708Z,11.60
2022-09-24T06:21:30.457Z,11.70
2022-09-24T06:23:57.234Z,12.90
2022-09-24T06:26:26.066Z,12.80
2022-09-24T07:18:19.124Z,12.90
2022-09-24T07:20:55.137Z,14.10
2022-09-24T07:23:22.898Z,14.00
2022-09-24T07:25:55.198Z,14.00
2022-09-24T07:28:21.826Z,14.10
2022-09-24T07:30:56.551Z,14.00
2022-09-24T07:33:23.216Z,14.10
2022-09-24T07:35:51.058Z,14.00
2022-09-24T07:38:18.343Z,13.90
2022-09-24T07:40:45.158Z,14.00
2022-09-24T07:43:13.835Z,13.90
2022-09-24T07:45:41.718Z,13.90
2022-09-24T07:48:10.160Z,13.90
2022-09-24T07:50:40.140Z,13.90
2022-09-24T07:53:06.852Z,13.90
2022-09-24T07:55:39.305Z,13.80
2022-09-24T07:58:07.054Z,13.90
2022-09-24T08:00:33.710Z,13.80
2022-09-24T19:00:50.920Z,13.60
2022-09-24T22:18:33.974Z,13.50
2022-09-24T22:21:09.283Z,13.00
2022-09-24T22:56:08.809Z,12.90
2022-09-24T22:58:37.126Z,12.20
2022-09-24T23:58:19.060Z,12.10
